Time;durP1;ratioP1;P1;durP2;ratioP2;P2;SDS_P1;SDS_P2;PMS_P1;PMS_P2;Temp;Humidity;BMP_temperature;BMP_pressure;BME280_temperature;BME280_humidity;BME280_pressure;Samples;Min_cycle;Max_cycle;Signal;HPM_P1;HPM_P2
2023/04/13 00:02:17;;;;;;;0.90;0.90;;;;;;;10.85;81.98;98501.22;10536325;28;20484;-71
2023/04/13 00:07:21;;;;;;;2.65;0.90;;;;;;;10.94;81.77;98498.03;10535493;28;20036;-69
2023/04/13 00:12:24;;;;;;;0.73;0.73;;;;;;;10.98;81.34;98509.22;10535899;28;20124;-71
2023/04/13 00:17:26;;;;;;;0.70;0.70;;;;;;;10.93;81.64;98498.97;10535809;28;20419;-70
2023/04/13 00:22:28;;;;;;;0.77;0.70;;;;;;;10.87;82.24;98501.94;10535722;28;20066;-70
2023/04/13 00:27:29;;;;;;;0.88;0.77;;;;;;;10.76;82.02;98505.19;10518031;28;20044;-70
2023/04/13 00:32:33;;;;;;;0.90;0.57;;;;;;;10.89;81.28;98513.25;10535223;28;20040;-70
2023/04/13 00:37:35;;;;;;;0.77;0.60;;;;;;;10.79;82.31;98510.25;10535364;28;20522;-71
2023/04/13 00:42:37;;;;;;;1.77;0.65;;;;;;;10.78;81.61;98505.09;10535112;28;20119;-70
2023/04/13 00:47:40;;;;;;;1.30;0.65;;;;;;;10.83;80.94;98505.69;10517106;28;20170;-70
2023/04/13 00:52:43;;;;;;;0.60;0.60;;;;;;;10.84;80.38;98512.63;10516879;28;20139;-70
2023/04/13 00:57:48;;;;;;;0.88;0.60;;;;;;;10.86;80.44;98508.16;10534606;28;20032;-70
2023/04/13 01:02:51;;;;;;;1.40;0.60;;;;;;;10.77;81.12;98516.56;10534592;28;20046;-70
2023/04/13 01:08:17;;;;;;;7.63;0.90;;;;;;;10.76;81.45;98512.25;10516362;28;20448;-70
2023/04/13 01:13:29;;;;;;;0.73;0.53;;;;;;;10.68;81.41;98511.81;10515487;28;20421;-70
2023/04/13 01:18:37;;;;;;;0.55;0.50;;;;;;;10.56;82.37;98521.22;10528518;28;20142;-70
2023/04/13 01:24:04;;;;;;;0.73;0.50;;;;;;;10.60;81.76;98514.88;10529087;28;20055;-70
2023/04/13 01:29:07;;;;;;;1.02;0.70;;;;;;;10.71;80.88;98527.41;10513289;28;20044;-71
2023/04/13 01:34:09;;;;;;;0.77;0.50;;;;;;;10.64;81.62;98520.81;10512122;28;20120;-71
2023/04/13 01:39:21;;;;;;;0.82;0.60;;;;;;;10.72;81.08;98515.97;10512188;28;20048;-70
2023/04/13 01:44:33;;;;;;;0.63;0.55;;;;;;;10.50;82.13;98514.56;10529459;28;20234;-71
2023/04/13 01:49:36;;;;;;;0.88;0.63;;;;;;;10.51;81.88;98523.28;10528323;28;20036;-71
2023/04/13 01:54:59;;;;;;;0.88;0.70;;;;;;;10.41;82.92;98538.69;10546575;28;20140;-70
2023/04/13 02:00:09;;;;;;;0.98;0.50;;;;;;;10.28;83.73;98535.91;10529072;28;20424;-70
2023/04/13 02:05:13;;;;;;;1.15;0.73;;;;;;;10.27;83.96;98549.09;10546501;28;20048;-70
2023/04/13 02:10:15;;;;;;;2.25;0.90;;;;;;;10.11;84.73;98560.41;10528328;28;20470;-71
2023/04/13 02:15:19;;;;;;;0.80;0.52;;;;;;;10.01;85.13;98574.94;10529150;28;20062;-70
2023/04/13 02:20:21;;;;;;;0.60;0.60;;;;;;;10.03;84.73;98583.56;10528525;28;20081;-70
2023/04/13 02:25:26;;;;;;;0.82;0.70;;;;;;;10.00;84.32;98580.25;10529146;28;20036;-71
2023/04/13 02:30:28;;;;;;;1.00;0.70;;;;;;;10.09;82.58;98579.78;10521284;28;20055;-70
2023/04/13 02:35:30;;;;;;;0.60;0.60;;;;;;;9.97;82.87;98588.31;10522020;28;20126;-70
2023/04/13 02:40:32;;;;;;;0.85;0.70;;;;;;;9.83;83.42;98587.25;10520892;28;20131;-70
2023/04/13 02:45:34;;;;;;;1.60;0.52;;;;;;;9.92;81.50;98578.06;10520512;28;20052;-70
2023/04/13 02:50:37;;;;;;;0.75;0.40;;;;;;;10.05;79.88;98575.66;10520334;28;20503;-71
2023/04/13 02:55:42;;;;;;;0.80;0.38;;;;;;;10.01;79.48;98581.97;10520367;28;20060;-70
2023/04/13 03:00:47;;;;;;;0.65;0.45;;;;;;;9.85;79.05;98590.63;10519493;28;20043;-71
2023/04/13 03:05:53;;;;;;;0.40;0.40;;;;;;;9.73;79.55;98601.75;10519940;28;20048;-70
2023/04/13 03:11:00;;;;;;;1.33;0.40;;;;;;;9.79;77.68;98590.13;10520107;28;20054;-69
2023/04/13 03:16:03;;;;;;;1.65;0.40;;;;;;;9.65;78.52;98603.94;10519508;28;20075;-70
2023/04/13 03:21:05;;;;;;;0.60;0.32;;;;;;;9.58;77.41;98597.31;10537091;28;20076;-71
2023/04/13 03:26:17;;;;;;;1.67;0.47;;;;;;;9.64;75.68;98609.25;10518855;28;20454;-70
2023/04/13 03:31:21;;;;;;;1.92;0.40;;;;;;;9.44;75.92;98605.03;10518676;28;20040;-70
2023/04/13 03:36:26;;;;;;;0.77;0.30;;;;;;;9.30;75.95;98611.81;10502510;28;20047;-70
2023/04/13 03:41:28;;;;;;;1.13;0.32;;;;;;;9.40;74.36;98629.72;10518441;28;20040;-70
2023/04/13 03:46:31;;;;;;;0.80;0.40;;;;;;;9.36;72.92;98639.50;10517476;28;20157;-70
2023/04/13 03:51:42;;;;;;;0.63;0.30;;;;;;;9.32;74.10;98640.56;10517924;28;20082;-70
2023/04/13 03:56:44;;;;;;;0.63;0.30;;;;;;;9.14;74.66;98636.22;10517379;28;20052;-71
2023/04/13 04:01:45;;;;;;;1.45;0.40;;;;;;;9.07;74.66;98651.38;10517021;28;20048;-70
2023/04/13 04:06:47;;;;;;;0.93;0.50;;;;;;;9.07;74.83;98647.00;10517352;28;20074;-71
2023/04/13 04:11:51;;;;;;;1.05;0.45;;;;;;;9.03;76.25;98641.94;10516920;28;20048;-70
2023/04/13 04:17:00;;;;;;;0.40;0.38;;;;;;;8.79;76.75;98629.09;10501791;28;20055;-70
2023/04/13 04:22:03;;;;;;;0.50;0.35;;;;;;;8.75;78.69;98630.16;10534652;28;20519;-70
2023/04/13 04:27:13;;;;;;;;;;;;;;;8.89;78.66;98626.03;10517548;28;20214;-70
2023/04/13 04:32:18;;;;;;;1.23;0.60;;;;;;;8.70;79.22;98640.00;10516298;28;20038;-70
2023/04/13 04:37:20;;;;;;;0.50;0.47;;;;;;;8.69;79.88;98648.78;10516498;28;20044;-70
2023/04/13 04:42:36;;;;;;;0.40;0.40;;;;;;;8.61;81.18;98663.16;10517640;28;20055;-70
2023/04/13 04:47:42;;;;;;;0.63;0.57;;;;;;;8.53;82.10;98660.88;10516760;28;20070;-70
2023/04/13 04:52:50;;;;;;;2.33;1.13;;;;;;;8.59;81.90;98668.47;10515505;28;20168;-73
2023/04/13 04:57:55;;;;;;;1.83;0.80;;;;;;;8.61;81.92;98665.78;10515888;28;20067;-73
2023/04/13 05:02:59;;;;;;;0.88;0.63;;;;;;;8.48;83.08;98689.91;10515796;28;20040;-74
2023/04/13 05:08:02;;;;;;;2.17;1.30;;;;;;;8.54;83.68;98697.50;10515529;28;20064;-74
2023/04/13 05:13:04;;;;;;;3.72;1.00;;;;;;;8.64;83.31;98708.41;10515861;28;20046;-74
2023/04/13 05:18:06;;;;;;;0.98;0.68;;;;;;;8.97;77.77;98732.22;10516687;28;20040;-73
2023/04/13 05:23:08;;;;;;;0.90;0.40;;;;;;;9.11;74.22;98731.56;10515229;28;20456;-73
2023/04/13 05:28:17;;;;;;;1.70;0.35;;;;;;;9.23;70.51;98735.41;10515382;28;20040;-73
2023/04/13 05:33:21;;;;;;;3.20;0.30;;;;;;;9.26;69.42;98745.75;10516252;28;20093;-74
2023/04/13 05:38:28;;;;;;;1.00;0.57;;;;;;;9.13;69.68;98752.50;10515343;28;20036;-74
2023/04/13 05:43:30;;;;;;;4.10;0.40;;;;;;;9.10;69.51;98756.09;10498610;28;20047;-74
2023/04/13 05:48:33;;;;;;;1.02;0.40;;;;;;;9.10;69.05;98770.03;10515735;28;20055;-73
2023/04/13 05:53:39;;;;;;;0.63;0.40;;;;;;;9.09;67.03;98781.47;10515627;28;20044;-73
2023/04/13 05:58:41;;;;;;;0.70;0.40;;;;;;;9.06;65.96;98794.69;10533527;28;20214;-73
2023/04/13 06:03:56;;;;;;;1.80;0.55;;;;;;;8.98;66.68;98795.97;10520887;28;20040;-74
2023/04/13 06:08:58;;;;;;;0.82;0.30;;;;;;;8.96;66.60;98803.91;10541597;28;20051;-74
2023/04/13 06:14:01;;;;;;;1.52;0.30;;;;;;;8.94;66.19;98802.25;10523211;28;20044;-74
2023/04/13 06:19:04;;;;;;;2.60;0.50;;;;;;;8.84;66.47;98796.56;10541484;28;20072;-74
2023/04/13 06:24:07;;;;;;;1.88;0.40;;;;;;;8.87;65.72;98791.22;10522760;28;20048;-73
2023/04/13 06:29:11;;;;;;;1.27;0.40;;;;;;;9.04;64.17;98800.94;10523846;28;20050;-74
2023/04/13 06:34:20;;;;;;;1.55;0.70;;;;;;;9.12;64.21;98809.31;10524498;28;20075;-74
2023/04/13 06:39:22;;;;;;;5.00;0.50;;;;;;;9.14;63.58;98806.63;10542066;28;20040;-74
2023/04/13 06:44:31;;;;;;;2.42;1.05;;;;;;;9.10;64.44;98791.00;10522856;28;20120;-74
2023/04/13 06:49:33;;;;;;;3.33;0.73;;;;;;;9.04;66.06;98800.94;10521149;28;20162;-74
2023/04/13 06:54:36;;;;;;;1.58;0.60;;;;;;;9.05;65.07;98807.88;10520790;28;20078;-74
2023/04/13 06:59:47;;;;;;;1.70;0.60;;;;;;;9.08;64.85;98782.38;10520107;28;20131;-73
2023/04/13 07:04:49;;;;;;;2.15;0.60;;;;;;;9.17;64.83;98788.97;10535265;28;20462;-74
2023/04/13 07:09:51;;;;;;;2.70;0.77;;;;;;;9.30;62.31;98789.28;10500995;28;20124;-74
2023/04/13 07:14:54;;;;;;;1.02;0.40;;;;;;;9.35;62.37;98796.00;10512532;28;20142;-73
2023/04/13 07:19:57;;;;;;;1.52;0.60;;;;;;;9.54;62.12;98809.09;10520932;28;20097;-74
2023/04/13 07:25:00;;;;;;;1.50;0.40;;;;;;;9.61;61.15;98817.53;10495421;28;20085;-74
2023/04/13 07:30:03;;;;;;;2.38;0.70;;;;;;;9.62;61.50;98821.00;10494352;28;20401;-73
2023/04/13 07:35:11;;;;;;;0.93;0.40;;;;;;;9.51;61.53;98824.13;10500473;28;20494;-73
2023/04/13 07:40:15;;;;;;;1.58;0.70;;;;;;;9.41;62.72;98833.34;10477648;28;20089;-74
2023/04/13 07:45:22;;;;;;;1.63;0.70;;;;;;;9.37;61.25;98824.75;10477491;28;20202;-73
2023/04/13 07:50:25;;;;;;;3.03;0.73;;;;;;;9.42;61.55;98846.38;10477545;28;20051;-74
2023/04/13 07:55:27;;;;;;;4.72;0.75;;;;;;;9.65;61.24;98855.84;10477474;28;20048;-74
2023/04/13 08:00:30;;;;;;;1.30;0.70;;;;;;;9.94;58.87;98858.84;10476652;28;20045;-73
2023/04/13 08:05:35;;;;;;;2.03;0.50;;;;;;;10.34;58.62;98868.28;10460153;28;20063;-73
2023/04/13 08:10:37;;;;;;;3.33;0.52;;;;;;;10.33;57.62;98874.47;10475864;28;20064;-73
2023/04/13 08:15:41;;;;;;;1.67;0.50;;;;;;;10.34;57.03;98873.53;10474786;28;20068;-75
2023/04/13 08:20:43;;;;;;;3.05;0.57;;;;;;;10.22;55.73;98872.31;10475151;28;20048;-74
2023/04/13 08:25:44;;;;;;;1.63;0.40;;;;;;;10.11;56.84;98885.13;10474244;28;20075;-74
2023/04/13 08:30:49;;;;;;;1.50;0.50;;;;;;;10.20;55.34;98904.84;10474955;28;20085;-74
2023/04/13 08:35:51;;;;;;;1.80;0.70;;;;;;;10.26;53.89;98912.44;10473227;28;20098;-75
2023/04/13 08:40:53;;;;;;;1.58;0.55;;;;;;;10.35;55.07;98898.88;10472906;28;20131;-73
2023/04/13 08:46:03;;;;;;;1.25;0.50;;;;;;;10.42;53.14;98889.78;10475004;28;20058;-73
2023/04/13 08:51:08;;;;;;;1.67;0.60;;;;;;;10.59;53.21;98904.72;10473885;28;20040;-74
2023/04/13 08:56:13;;;;;;;1.45;0.77;;;;;;;10.78;54.22;98899.38;10477970;28;20048;-73
2023/04/13 09:01:16;;;;;;;1.30;0.60;;;;;;;11.05;54.05;98900.59;10482511;28;20037;-74
2023/04/13 09:06:27;;;;;;;2.35;0.63;;;;;;;11.13;53.06;98897.56;10515045;28;20039;-73
2023/04/13 09:11:30;;;;;;;1.60;0.60;;;;;;;11.25;52.09;98910.09;10515687;28;20044;-74
2023/04/13 09:16:42;;;;;;;1.38;0.55;;;;;;;11.30;53.57;98923.84;10515377;28;20135;-73
2023/04/13 09:22:14;;;;;;;2.90;0.60;;;;;;;11.39;51.87;98914.63;10518406;28;20127;-75
2023/04/13 09:27:20;;;;;;;2.92;0.70;;;;;;;11.52;50.20;98920.94;10534391;28;20234;-72
2023/04/13 09:32:24;;;;;;;1.75;0.60;;;;;;;11.58;51.04;98925.84;10533364;28;20065;-74
2023/04/13 09:37:29;;;;;;;1.67;0.80;;;;;;;11.68;50.66;98928.84;10519036;28;20131;-74
2023/04/13 09:42:31;;;;;;;5.72;0.80;;;;;;;11.58;50.30;98931.13;10540894;28;20092;-74
2023/04/13 09:47:38;;;;;;;1.60;0.77;;;;;;;11.24;51.93;98931.19;10541397;28;20040;-75
2023/04/13 09:52:40;;;;;;;2.40;0.77;;;;;;;11.36;50.86;98931.41;10540795;28;20048;-75
2023/04/13 09:57:42;;;;;;;2.65;0.70;;;;;;;11.12;50.09;98935.31;10540176;28;20401;-75
2023/04/13 10:02:44;;;;;;;2.20;0.60;;;;;;;11.06;51.38;98938.25;10540246;28;20449;-75
2023/04/13 10:07:46;;;;;;;2.45;0.80;;;;;;;11.25;50.41;98936.38;10502987;28;20090;-74
2023/04/13 10:12:52;;;;;;;2.78;0.80;;;;;;;11.56;49.34;98938.25;10508736;28;20398;-76
2023/04/13 10:18:24;;;;;;;1.85;0.52;;;;;;;11.49;49.28;98931.59;10511286;28;20374;-75
2023/04/13 10:23:28;;;;;;;3.10;0.52;;;;;;;11.51;49.60;98936.78;10496162;28;20048;-74
2023/04/13 10:28:44;;;;;;;3.60;0.73;;;;;;;11.73;47.80;98937.34;10520460;28;20396;-75
2023/04/13 10:33:49;;;;;;;2.47;0.73;;;;;;;12.19;45.53;98952.44;10539318;28;20391;-74
2023/04/13 10:38:51;;;;;;;1.52;0.65;;;;;;;13.02;46.80;98945.94;10521605;28;20101;-74
2023/04/13 10:44:01;;;;;;;2.25;0.88;;;;;;;12.93;44.77;98955.22;10538565;28;20058;-76
2023/04/13 10:49:03;;;;;;;1.92;0.50;;;;;;;13.92;45.45;98939.59;10537913;28;20044;-76
2023/04/13 10:54:07;;;;;;;1.08;0.63;;;;;;;14.46;42.12;98935.19;10539532;28;20102;-75
2023/04/13 10:59:09;;;;;;;2.28;0.63;;;;;;;13.82;43.07;98939.31;10519489;28;20113;-75
2023/04/13 11:04:11;;;;;;;1.70;0.50;;;;;;;13.29;44.92;98938.19;10519918;28;20044;-75
2023/04/13 11:09:21;;;;;;;1.25;0.50;;;;;;;13.70;43.82;98940.09;10537938;28;20119;-76
2023/04/13 11:14:23;;;;;;;1.45;0.80;;;;;;;14.29;44.59;98940.72;10537427;28;20130;-74
2023/04/13 11:19:25;;;;;;;1.35;0.63;;;;;;;15.07;40.40;98931.16;10527933;28;20110;-75
2023/04/13 11:24:32;;;;;;;1.90;0.60;;;;;;;15.64;40.63;98940.53;10519428;28;20116;-76
2023/04/13 11:29:34;;;;;;;0.93;0.43;;;;;;;16.00;39.39;98944.19;10536687;28;20036;-75
2023/04/13 11:34:35;;;;;;;1.75;0.80;;;;;;;15.41;41.88;98938.63;10536801;28;20350;-75
2023/04/13 11:39:38;;;;;;;2.15;0.90;;;;;;;14.78;40.17;98946.34;10536567;28;20044;-75
2023/04/13 11:44:44;;;;;;;2.28;0.60;;;;;;;14.26;43.03;98947.09;10518144;28;20052;-75
2023/04/13 11:49:46;;;;;;;1.02;0.50;;;;;;;14.52;43.47;98939.25;10536096;28;20036;-74
2023/04/13 11:54:49;;;;;;;3.55;0.70;;;;;;;13.99;44.81;98936.47;10535816;28;20105;-74
2023/04/13 11:59:52;;;;;;;2.42;0.90;;;;;;;14.84;42.33;98921.28;10535814;28;20107;-75
2023/04/13 12:04:55;;;;;;;1.40;0.55;;;;;;;14.99;42.42;98922.91;10517697;28;20048;-76
2023/04/13 12:09:57;;;;;;;1.63;0.65;;;;;;;15.49;39.85;98937.09;10518014;28;20070;-75
2023/04/13 12:15:07;;;;;;;1.10;0.40;;;;;;;15.40;41.46;98921.84;10535651;28;20115;-75
2023/04/13 12:20:42;;;;;;;1.17;0.50;;;;;;;15.08;40.83;98921.41;10534732;28;20101;-74
2023/04/13 12:25:57;;;;;;;3.35;0.60;;;;;;;14.57;42.52;98924.81;10534772;28;20059;-75
2023/04/13 12:31:02;;;;;;;1.08;0.57;;;;;;;14.73;41.37;98924.63;10516801;28;20055;-75
2023/04/13 12:36:05;;;;;;;3.20;0.68;;;;;;;14.22;41.21;98931.53;10535430;28;20051;-75
2023/04/13 12:41:08;;;;;;;1.42;0.80;;;;;;;14.23;43.19;98927.91;10515938;28;20063;-74
2023/04/13 12:46:10;;;;;;;1.48;0.50;;;;;;;13.87;42.80;98924.88;10515680;28;20218;-74
2023/04/13 12:51:12;;;;;;;2.05;0.50;;;;;;;13.90;43.47;98923.84;10534136;28;20046;-74
2023/04/13 12:56:14;;;;;;;1.90;0.60;;;;;;;13.72;42.91;98924.97;10534923;28;20135;-75
2023/04/13 13:01:16;;;;;;;1.50;0.73;;;;;;;14.80;40.57;98933.88;10534212;28;20453;-75
2023/04/13 13:06:18;;;;;;;2.47;0.60;;;;;;;14.66;42.71;98941.88;10533747;28;20474;-74
2023/04/13 13:11:20;;;;;;;1.67;0.50;;;;;;;13.90;43.47;98939.69;10515210;28;20032;-75
2023/04/13 13:16:22;;;;;;;3.13;0.70;;;;;;;14.10;44.52;98914.63;10534310;28;20043;-74
2023/04/13 13:21:23;;;;;;;2.63;0.77;;;;;;;14.03;42.74;98921.25;10533305;28;20063;-74
2023/04/13 13:26:25;;;;;;;2.25;0.60;;;;;;;14.10;43.42;98928.69;10533589;28;20109;-74
2023/04/13 13:31:40;;;;;;;2.78;0.82;;;;;;;13.62;44.24;98933.47;10502429;28;20068;-74
2023/04/13 13:36:42;;;;;;;2.42;0.80;;;;;;;13.35;45.99;98924.59;10509469;28;20040;-73
2023/04/13 13:41:44;;;;;;;3.15;1.02;;;;;;;13.51;45.15;98922.75;10520028;28;20067;-74
2023/04/13 13:46:45;;;;;;;3.45;0.80;;;;;;;13.88;44.82;98928.38;10489617;28;20432;-75
2023/04/13 13:51:48;;;;;;;2.35;0.77;;;;;;;14.21;43.49;98935.09;10514239;28;20054;-75
2023/04/13 13:56:51;;;;;;;3.88;0.80;;;;;;;14.18;44.22;98930.00;10514724;28;20048;-74
2023/04/13 14:01:53;;;;;;;2.05;0.60;;;;;;;14.02;43.58;98932.78;10533733;28;20036;-75
2023/04/13 14:06:56;;;;;;;2.25;0.60;;;;;;;13.89;42.88;98938.81;10522993;28;20071;-74
2023/04/13 14:11:58;;;;;;;0.63;0.50;;;;;;;13.68;44.28;98932.25;10514770;28;20094;-74
2023/04/13 14:17:00;;;;;;;2.83;0.80;;;;;;;13.38;44.54;98930.56;10532850;28;20036;-75
2023/04/13 14:22:01;;;;;;;1.83;0.68;;;;;;;13.38;44.41;98921.78;10535202;28;20470;-76
2023/04/13 14:27:04;;;;;;;1.75;0.63;;;;;;;13.91;45.35;98922.91;10541403;28;20363;-77
2023/04/13 14:32:06;;;;;;;2.22;0.57;;;;;;;13.90;43.09;98926.50;10523114;28;20406;-75
2023/04/13 14:37:08;;;;;;;2.60;0.70;;;;;;;13.90;44.33;98923.84;10540182;28;20044;-75
2023/04/13 14:42:13;;;;;;;1.63;0.60;;;;;;;13.40;44.49;98926.97;10521680;28;20040;-75
2023/04/13 14:47:15;;;;;;;1.23;0.52;;;;;;;13.50;43.80;98926.31;10540005;28;20143;-76
2023/04/13 14:52:17;;;;;;;2.30;0.73;;;;;;;13.38;44.15;98925.28;10539497;28;20143;-75
2023/04/13 14:57:19;;;;;;;1.58;0.60;;;;;;;13.35;44.68;98929.88;10539460;28;20055;-75
2023/04/13 15:02:20;;;;;;;2.50;0.60;;;;;;;13.66;45.40;98936.78;10538512;28;20115;-74
2023/04/13 15:07:28;;;;;;;2.75;0.80;;;;;;;14.08;42.42;98945.63;10520105;28;20067;-74
2023/04/13 15:12:29;;;;;;;2.33;0.70;;;;;;;13.70;44.38;98962.06;10538235;28;20046;-74
2023/04/13 15:17:31;;;;;;;2.40;0.73;;;;;;;13.72;44.29;98968.06;10538145;28;20123;-74
2023/04/13 15:22:34;;;;;;;1.58;0.60;;;;;;;13.58;44.79;98962.78;10502054;28;20119;-75
2023/04/13 15:27:36;;;;;;;2.20;0.80;;;;;;;13.67;44.29;98959.59;10496195;28;20051;-75
2023/04/13 15:32:39;;;;;;;2.47;0.52;;;;;;;13.87;43.91;98969.78;10496273;28;20064;-75
2023/04/13 15:37:41;;;;;;;2.22;0.60;;;;;;;13.54;45.02;98974.47;10478358;28;20123;-75
2023/04/13 15:42:43;;;;;;;0.90;0.50;;;;;;;13.19;45.77;98979.22;10495900;28;20046;-75
2023/04/13 15:47:45;;;;;;;2.17;0.70;;;;;;;12.94;46.79;98988.56;10495709;28;20058;-75
2023/04/13 15:52:47;;;;;;;2.92;1.30;;;;;;;13.25;46.68;98984.16;10477808;28;20097;-74
2023/04/13 15:57:52;;;;;;;1.98;0.80;;;;;;;13.33;45.54;98993.34;10494876;28;20158;-74
2023/04/13 16:02:55;;;;;;;1.67;0.65;;;;;;;13.17;45.95;98991.66;10495280;28;20443;-75
2023/04/13 16:07:57;;;;;;;1.55;0.80;;;;;;;13.21;44.71;99001.09;10494461;28;20081;-74
2023/04/13 16:13:01;;;;;;;4.10;0.70;;;;;;;13.27;44.94;98996.31;10494226;28;20490;-74
2023/04/13 16:18:03;;;;;;;1.65;0.63;;;;;;;12.92;44.59;99000.97;10494195;28;20049;-75
2023/04/13 16:23:05;;;;;;;1.88;0.77;;;;;;;12.83;45.68;98998.88;10493580;28;20373;-74
2023/04/13 16:28:08;;;;;;;3.45;1.98;;;;;;;12.70;47.02;98988.19;10493871;28;20451;-74
2023/04/13 16:33:10;;;;;;;1.63;0.55;;;;;;;13.02;45.80;98991.63;10475599;28;20098;-75
2023/04/13 16:38:12;;;;;;;1.92;0.70;;;;;;;13.17;45.35;98992.50;10494111;28;20051;-75
2023/04/13 16:43:15;;;;;;;1.98;0.70;;;;;;;12.67;47.47;98991.00;10493530;28;20037;-75
2023/04/13 16:48:17;;;;;;;2.28;0.50;;;;;;;12.38;47.52;98988.22;10491953;28;20048;-75
2023/04/13 16:53:18;;;;;;;1.98;1.10;;;;;;;12.38;48.21;99001.38;10492905;28;20055;-76
2023/04/13 16:58:20;;;;;;;3.15;1.00;;;;;;;12.37;48.53;98999.69;10474718;28;20485;-77
2023/04/13 17:03:22;;;;;;;5.75;0.70;;;;;;;12.28;48.56;99002.84;10493890;28;20425;-75
2023/04/13 17:08:24;;;;;;;2.72;0.60;;;;;;;12.23;48.76;99006.69;10493837;28;20092;-76
2023/04/13 17:13:26;;;;;;;1.38;0.70;;;;;;;12.45;48.74;98995.81;10492896;28;20044;-76
2023/04/13 17:18:28;;;;;;;2.33;0.60;;;;;;;12.36;48.14;98994.53;10474443;28;20051;-76
2023/04/13 17:23:30;;;;;;;1.70;0.43;;;;;;;12.26;48.65;98996.81;10493111;28;20041;-77
2023/04/13 17:28:32;;;;;;;1.85;0.75;;;;;;;12.19;48.64;98992.81;10475101;28;20432;-76
2023/04/13 17:33:33;;;;;;;1.15;0.50;;;;;;;12.05;49.54;98980.41;10474760;28;20502;-75
2023/04/13 17:38:35;;;;;;;1.42;0.47;;;;;;;12.09;49.16;98983.72;10492994;28;20104;-76
2023/04/13 17:43:38;;;;;;;1.83;0.70;;;;;;;12.12;49.47;98978.25;10494142;28;20470;-75
2023/04/13 17:48:41;;;;;;;5.60;0.70;;;;;;;11.83;50.31;98978.06;10494437;28;20040;-76
2023/04/13 17:53:43;;;;;;;2.17;0.88;;;;;;;11.78;50.49;98976.59;10475244;28;20143;-76
2023/04/13 17:58:45;;;;;;;3.75;0.85;;;;;;;11.64;51.38;98985.19;10497119;28;20055;-76
2023/04/13 18:03:47;;;;;;;2.58;1.02;;;;;;;11.74;50.89;99019.81;10499617;28;20123;-76
2023/04/13 18:08:49;;;;;;;4.28;2.42;;;;;;;11.73;50.97;99044.41;10482785;28;20067;-76
2023/04/13 18:13:51;;;;;;;5.60;2.47;;;;;;;11.58;51.23;99085.56;10500153;28;20098;-76
2023/04/13 18:18:53;;;;;;;2.70;1.50;;;;;;;11.25;53.53;99130.22;10481895;28;20045;-76
2023/04/13 18:23:55;;;;;;;4.82;1.67;;;;;;;11.03;55.00;99144.38;10499378;28;20126;-76
2023/04/13 18:28:56;;;;;;;2.20;1.67;;;;;;;10.87;55.50;99146.03;10498533;28;20071;-76
2023/04/13 18:33:58;;;;;;;4.28;1.48;;;;;;;11.00;57.54;99149.78;10499148;28;20071;-76
2023/04/13 18:39:02;;;;;;;3.22;1.10;;;;;;;11.09;55.73;99156.38;10508200;28;20091;-77
2023/04/13 18:44:04;;;;;;;2.55;1.50;;;;;;;10.94;55.97;99165.03;10512025;28;20047;-76
2023/04/13 18:49:06;;;;;;;4.72;2.00;;;;;;;10.80;57.18;99165.63;10498416;28;20045;-76
2023/04/13 18:54:07;;;;;;;3.00;2.05;;;;;;;10.89;57.33;99170.50;10507817;28;20044;-76
2023/04/13 18:59:09;;;;;;;3.22;2.10;;;;;;;10.96;57.45;99164.00;10497601;28;20394;-76
2023/04/13 19:04:11;;;;;;;9.27;2.45;;;;;;;10.68;58.64;99156.56;10496033;28;20478;-77
2023/04/13 19:09:13;;;;;;;4.88;3.08;;;;;;;10.53;59.14;99144.09;10519562;28;20044;-76
2023/04/13 19:14:15;;;;;;;7.70;6.60;;;;;;;10.43;59.09;99142.81;10495184;28;20056;-76
2023/04/13 19:19:17;;;;;;;6.88;4.95;;;;;;;10.40;58.87;99141.19;10496173;28;20040;-75
2023/04/13 19:24:19;;;;;;;3.85;2.83;;;;;;;10.33;59.37;99137.16;10495773;28;20060;-76
2023/04/13 19:29:22;;;;;;;6.88;2.88;;;;;;;10.22;60.27;99124.44;10496530;28;20047;-76
2023/04/13 19:34:23;;;;;;;3.45;2.70;;;;;;;10.20;60.56;99126.28;10509260;28;20055;-76
2023/04/13 19:39:26;;;;;;;4.80;3.50;;;;;;;10.16;61.27;99129.13;10518388;28;20415;-76
2023/04/13 19:44:27;;;;;;;4.50;3.28;;;;;;;10.09;61.45;99128.53;10439919;28;20045;-77
2023/04/13 19:49:29;;;;;;;6.38;3.10;;;;;;;10.29;61.56;99130.31;10502233;28;20044;-75
2023/04/13 19:54:31;;;;;;;4.22;2.40;;;;;;;9.96;62.75;99119.50;10519451;28;20048;-75
2023/04/13 19:59:33;;;;;;;3.67;2.85;;;;;;;9.79;63.56;99120.25;10494004;28;20127;-75
2023/04/13 20:04:36;;;;;;;3.95;2.72;;;;;;;9.71;63.78;99104.81;10493727;28;20494;-75
2023/04/13 20:09:38;;;;;;;3.65;2.60;;;;;;;9.69;64.56;99109.28;10475263;28;20079;-77
2023/04/13 20:14:40;;;;;;;3.67;2.47;;;;;;;9.72;65.91;99110.91;10492924;28;20173;-77
2023/04/13 20:19:42;;;;;;;2.83;2.15;;;;;;;9.46;66.62;99119.88;10492928;28;20044;-76
2023/04/13 20:24:44;;;;;;;3.45;2.05;;;;;;;9.47;66.98;99127.69;10492816;28;20052;-77
2023/04/13 20:29:46;;;;;;;4.10;2.30;;;;;;;9.68;67.09;99135.59;10492201;28;20048;-76
2023/04/13 20:34:48;;;;;;;4.97;2.40;;;;;;;9.47;67.38;99129.47;10491765;28;20041;-77
2023/04/13 20:39:50;;;;;;;5.20;2.50;;;;;;;9.22;68.15;99129.63;10491650;28;20032;-75
2023/04/13 20:44:58;;;;;;;3.63;2.38;;;;;;;9.00;69.05;99116.53;10491533;28;20112;-77
2023/04/13 20:50:00;;;;;;;3.15;2.05;;;;;;;8.93;68.82;99101.97;10492207;28;20059;-76
2023/04/13 20:55:02;;;;;;;3.13;1.63;;;;;;;8.97;69.19;99087.81;10492040;28;20492;-74
2023/04/13 21:00:07;;;;;;;2.50;1.48;;;;;;;8.93;69.76;99081.00;10491303;28;20040;-75
2023/04/13 21:05:11;;;;;;;;;;;;;;;8.95;69.36;99074.78;10474182;28;20048;-74
2023/04/13 21:10:16;;;;;;;6.53;2.40;;;;;;;9.21;66.97;99081.59;10491234;28;19932;-76
2023/04/13 21:15:18;;;;;;;4.45;3.35;;;;;;;8.92;68.31;99087.16;10491316;28;20066;-76
2023/04/13 21:20:19;;;;;;;3.50;2.38;;;;;;;8.63;70.00;99093.53;10490751;28;20124;-76
2023/04/13 21:25:21;;;;;;;4.00;2.08;;;;;;;8.52;70.93;99097.44;10490921;28;20044;-76
2023/04/13 21:30:23;;;;;;;5.07;1.80;;;;;;;8.68;70.64;99107.31;10491445;28;20087;-76
2023/04/13 21:35:25;;;;;;;2.97;2.05;;;;;;;8.53;70.25;99100.91;10498390;28;20055;-76
2023/04/13 21:40:26;;;;;;;3.13;1.90;;;;;;;8.63;69.93;99104.84;10499279;28;20041;-75
2023/04/13 21:45:28;;;;;;;4.15;1.75;;;;;;;8.50;68.81;99114.97;10500219;28;20044;-76
2023/04/13 21:50:30;;;;;;;2.92;2.20;;;;;;;8.83;66.79;99119.81;10498964;28;20071;-76
2023/04/13 21:55:32;;;;;;;5.10;1.90;;;;;;;8.73;67.84;99111.47;10498731;28;20055;-75
2023/04/13 22:00:33;;;;;;;3.95;2.15;;;;;;;9.10;65.87;99105.59;10498496;28;20044;-76
2023/04/13 22:05:35;;;;;;;4.63;2.50;;;;;;;8.80;67.13;99101.59;10498387;28;20098;-76
2023/04/13 22:10:37;;;;;;;7.30;3.60;;;;;;;8.59;67.75;99092.81;10498767;28;20037;-75
2023/04/13 22:15:38;;;;;;;6.35;4.13;;;;;;;8.57;68.54;99092.00;10479554;28;20080;-76
2023/04/13 22:20:40;;;;;;;7.80;2.38;;;;;;;8.49;68.93;99071.34;10479765;28;20116;-76
2023/04/13 22:25:50;;;;;;;5.50;2.35;;;;;;;8.43;69.58;99068.13;10498136;28;20410;-76
2023/04/13 22:30:52;;;;;;;7.65;1.80;;;;;;;8.40;69.53;99063.00;10498622;28;20425;-76
2023/04/13 22:35:54;;;;;;;4.20;2.63;;;;;;;8.42;69.84;99056.78;10497761;28;20110;-76
2023/04/13 22:40:56;;;;;;;3.72;1.70;;;;;;;8.43;69.94;99055.03;10479361;28;20040;-75
2023/04/13 22:46:01;;;;;;;3.08;1.90;;;;;;;8.40;69.86;99058.59;10495549;28;20051;-75
2023/04/13 22:51:02;;;;;;;5.05;2.67;;;;;;;8.42;70.19;99061.19;10496743;28;20041;-76
2023/04/13 22:56:04;;;;;;;10.43;3.38;;;;;;;8.75;69.07;99077.34;10509517;22;20041;-70
2023/04/13 23:01:06;;;;;;;13.00;3.13;;;;;;;8.83;69.13;99081.38;10494784;28;20052;-71
2023/04/13 23:06:08;;;;;;;4.63;2.15;;;;;;;8.57;70.36;99090.25;10494588;28;20059;-70
2023/04/13 23:11:10;;;;;;;3.95;2.35;;;;;;;8.38;71.52;99107.56;10494492;28;20102;-70
2023/04/13 23:16:11;;;;;;;5.13;2.53;;;;;;;8.34;72.70;99109.41;10494285;28;20063;-71
2023/04/13 23:21:13;;;;;;;4.30;2.22;;;;;;;8.34;72.70;99112.03;10493436;28;20109;-71
2023/04/13 23:26:15;;;;;;;3.70;1.70;;;;;;;8.41;72.25;99115.31;10494084;28;20075;-71
2023/04/13 23:31:17;;;;;;;4.00;2.05;;;;;;;8.39;72.94;99105.81;10494531;28;20060;-70
2023/04/13 23:36:19;;;;;;;3.50;1.85;;;;;;;8.42;72.69;99108.31;10492992;28;20089;-70
2023/04/13 23:41:21;;;;;;;3.85;1.92;;;;;;;8.40;72.34;99120.59;10492862;28;20047;-70